Capewater — PBPQ — position and weather

sailwx.info

Track history (hours):
 
Tides and Currents Weather Stations Pressure Air Temp Water Temp Dewpoint Dewpoint Depression Visibility Wind Speed Wind Dir Waves Ship Positions

Capewater

Last reported at 2016-Dec-07 10:32 UTC. Time now 2016-Dec-07 10:38 UTC.
Position N 51°56' E 003°49'.

Length 100 m; draft 5.2 m.

Type: Tanker. MMSI: 246346000.

Date/timePositionNaut miles runAvg speedWind from/ knotsBaromVisibWave heightAir tempDewpointWater temp
2016-Dec-07 10:32N 51°56' E 003°49'0 0.0
2016-Dec-07 09:32N 51°56' E 003°49'0 0.0
2016-Dec-07 08:26N 51°56' E 003°49'0 0.0
2016-Dec-07 07:32N 51°56' E 003°49'0 0.0
2016-Dec-07 06:32N 51°56' E 003°49'0 0.0
2016-Dec-07 05:29N 51°56' E 003°49'0 0.0
2016-Dec-07 04:29N 51°56' E 003°49'0 0.0
2016-Dec-07 03:32N 51°56' E 003°49'0 0.1
2016-Dec-07 02:32N 51°56' E 003°49'0 0.0
2016-Dec-07 01:32N 51°56' E 003°49'0 0.1
2016-Dec-07 00:32N 51°56' E 003°49'0 0.0
2016-Dec-06 23:32N 51°56' E 003°49'0 0.0
2016-Dec-06 22:32N 51°56' E 003°49'0 0.0
2016-Dec-06 21:32N 51°56' E 003°49'0 0.0
2016-Dec-06 20:32N 51°56' E 003°49'0 0.0
2016-Dec-06 18:32N 51°56' E 003°49'0 0.0
2016-Dec-06 17:29N 51°56' E 003°49'0 0.0
2016-Dec-06 16:29N 51°56' E 003°49'0 0.3
2016-Dec-06 15:33N 51°56' E 003°48'8 8.1
2016-Dec-06 14:33N 51°58' E 003°35'1010.2
2016-Dec-06 13:32N 52°07' E 003°29'6312.2
2016-Dec-06 08:20N 52°49' E 002°11'911.5
2016-Dec-06 07:33N 52°56' E 002°01'1111.2
2016-Dec-06 06:34N 53°00' E 001°44'1010.4
2016-Dec-06 05:33N 53°06' E 001°30'1110.6
2016-Dec-06 04:34N 53°13' E 001°17'1110.9
2016-Dec-06 03:33N 53°23' E 001°07'1110.9
2016-Dec-06 02:31N 53°32' E 000°57'3811.4
2016-Dec-05 23:10N 54°05' E 000°24'711.9
2016-Dec-05 22:34N 54°12' E 000°19'1111.3
2016-Dec-05 21:34N 54°21' E 000°09'1211.6
2016-Dec-05 20:34N 54°30' W 000°05'1211.8
2016-Dec-05 19:33N 54°39' W 000°18'9 0.2
2016-Dec-04 07:33N 54°32' W 000°27'1312.8
2016-Dec-04 06:33N 54°22' W 000°13'1312.8
2016-Dec-04 05:33N 54°11' W 000°01'3912.3
2016-Dec-04 02:23N 53°33' E 000°16'911.0
2016-Dec-04 01:34N 53°35' E 000°01'8 7.6
2016-Dec-04 00:31N 53°38' W 000°11'0 0.0
2016-Dec-03 23:31N 53°38' W 000°11'0 0.0
2016-Dec-03 14:16N 53°38' W 000°11'0 0.0
2016-Dec-03 13:31N 53°38' W 000°11'0 0.0
2016-Dec-03 06:25N 53°38' W 000°11'0 0.0
2016-Dec-03 05:28N 53°38' W 000°11'0 0.0
2016-Dec-03 04:33N 53°38' W 000°11'6 5.7
2016-Dec-03 03:33N 53°36' W 000°02'1010.4
2016-Dec-03 02:33N 53°33' E 000°14'3010.1
2016-Dec-02 23:32N 54°04' E 000°19'1010.6
2016-Dec-02 22:33N 54°14' E 000°14'1010.1
2016-Dec-02 21:33N 54°22' E 000°04'1110.5
2016-Dec-02 20:33N 54°27' W 000°12'1010.3
2016-Dec-02 19:33N 54°33' W 000°27'  
2016-Nov-28 23:22N 54°35' W 000°32'1113.9
2016-Nov-28 22:34N 54°27' W 000°17'1514.6
2016-Nov-28 21:34N 54°15' W 000°03'1514.9
2016-Nov-28 20:33N 54°02' E 000°10'2913.0
2016-Nov-28 18:19N 53°33' E 000°16'911.7
2016-Nov-28 17:33N 53°35' E 000°01'8 7.7
2016-Nov-28 16:31N 53°38' W 000°11'0 0.0
2016-Nov-28 15:31N 53°38' W 000°11'0 0.0
2016-Nov-28 14:34N 53°38' W 000°11'0 0.0
2016-Nov-28 13:22N 53°38' W 000°11'0 0.0
2016-Nov-28 12:31N 53°38' W 000°11'0 0.0
2016-Nov-28 11:28N 53°38' W 000°11'0 0.0
2016-Nov-28 10:28N 53°38' W 000°11'0 0.0
2016-Nov-28 09:31N 53°38' W 000°11'0 0.0
2016-Nov-28 08:13N 53°38' W 000°11'0 0.0
2016-Nov-28 07:28N 53°38' W 000°11'0 0.0
2016-Nov-28 05:10N 53°38' W 000°11'0 0.0
2016-Nov-28 04:25N 53°38' W 000°11'0 0.0
2016-Nov-28 03:31N 53°38' W 000°11'0 0.0
2016-Nov-28 02:16N 53°38' W 000°11'0 0.0
2016-Nov-28 01:31N 53°38' W 000°11'0 0.0
2016-Nov-28 00:16N 53°38' W 000°11'0 0.0
2016-Nov-27 23:27N 53°38' W 000°11'0 0.0
2016-Nov-27 22:34N 53°38' W 000°11'0 0.0
2016-Nov-27 21:34N 53°38' W 000°11'0 0.0
2016-Nov-27 20:31N 53°38' W 000°11'2 2.4
2016-Nov-27 19:33N 53°37' W 000°08'1110.5
2016-Nov-27 18:33N 53°33' E 000°09'45 9.1
2016-Nov-27 13:34N 53°13' E 001°17'1514.6
2016-Nov-27 12:34N 53°00' E 001°29'1515.2
2016-Nov-27 11:34N 52°51' E 001°48'  
Track history (hours):
 
Tides and Currents Weather Stations Pressure Air Temp Water Temp Dewpoint Dewpoint Depression Visibility Wind Speed Wind Dir Waves Ship Positions

Capewater

Last reported at 2016-Dec-07 10:32 UTC. Time now 2016-Dec-07 10:38 UTC.
Position N 51°56' E 003°49'.

Length 100 m; draft 5.2 m.

Type: Tanker. MMSI: 246346000.

Date/timePositionNaut miles runAvg speedWind from/ knotsBaromVisibWave heightAir tempDewpointWater temp
2016-Dec-07 10:32N 51°56' E 003°49'0 0.0
2016-Dec-07 09:32N 51°56' E 003°49'0 0.0
2016-Dec-07 08:26N 51°56' E 003°49'0 0.0
2016-Dec-07 07:32N 51°56' E 003°49'0 0.0
2016-Dec-07 06:32N 51°56' E 003°49'0 0.0
2016-Dec-07 05:29N 51°56' E 003°49'0 0.0
2016-Dec-07 04:29N 51°56' E 003°49'0 0.0
2016-Dec-07 03:32N 51°56' E 003°49'0 0.1
2016-Dec-07 02:32N 51°56' E 003°49'0 0.0
2016-Dec-07 01:32N 51°56' E 003°49'0 0.1
2016-Dec-07 00:32N 51°56' E 003°49'0 0.0
2016-Dec-06 23:32N 51°56' E 003°49'0 0.0
2016-Dec-06 22:32N 51°56' E 003°49'0 0.0
2016-Dec-06 21:32N 51°56' E 003°49'0 0.0
2016-Dec-06 20:32N 51°56' E 003°49'0 0.0
2016-Dec-06 18:32N 51°56' E 003°49'0 0.0
2016-Dec-06 17:29N 51°56' E 003°49'0 0.0
2016-Dec-06 16:29N 51°56' E 003°49'0 0.3
2016-Dec-06 15:33N 51°56' E 003°48'8 8.1
2016-Dec-06 14:33N 51°58' E 003°35'1010.2
2016-Dec-06 13:32N 52°07' E 003°29'6312.2
2016-Dec-06 08:20N 52°49' E 002°11'911.5
2016-Dec-06 07:33N 52°56' E 002°01'1111.2
2016-Dec-06 06:34N 53°00' E 001°44'1010.4
2016-Dec-06 05:33N 53°06' E 001°30'1110.6
2016-Dec-06 04:34N 53°13' E 001°17'1110.9
2016-Dec-06 03:33N 53°23' E 001°07'1110.9
2016-Dec-06 02:31N 53°32' E 000°57'3811.4
2016-Dec-05 23:10N 54°05' E 000°24'711.9
2016-Dec-05 22:34N 54°12' E 000°19'1111.3
2016-Dec-05 21:34N 54°21' E 000°09'1211.6
2016-Dec-05 20:34N 54°30' W 000°05'1211.8
2016-Dec-05 19:33N 54°39' W 000°18'9 0.2
2016-Dec-04 07:33N 54°32' W 000°27'1312.8
2016-Dec-04 06:33N 54°22' W 000°13'1312.8
2016-Dec-04 05:33N 54°11' W 000°01'3912.3
2016-Dec-04 02:23N 53°33' E 000°16'911.0
2016-Dec-04 01:34N 53°35' E 000°01'8 7.6
2016-Dec-04 00:31N 53°38' W 000°11'0 0.0
2016-Dec-03 23:31N 53°38' W 000°11'0 0.0
2016-Dec-03 14:16N 53°38' W 000°11'0 0.0
2016-Dec-03 13:31N 53°38' W 000°11'0 0.0
2016-Dec-03 06:25N 53°38' W 000°11'0 0.0
2016-Dec-03 05:28N 53°38' W 000°11'0 0.0
2016-Dec-03 04:33N 53°38' W 000°11'6 5.7
2016-Dec-03 03:33N 53°36' W 000°02'1010.4
2016-Dec-03 02:33N 53°33' E 000°14'3010.1
2016-Dec-02 23:32N 54°04' E 000°19'1010.6
2016-Dec-02 22:33N 54°14' E 000°14'1010.1
2016-Dec-02 21:33N 54°22' E 000°04'1110.5
2016-Dec-02 20:33N 54°27' W 000°12'1010.3
2016-Dec-02 19:33N 54°33' W 000°27'  
2016-Nov-28 23:22N 54°35' W 000°32'1113.9
2016-Nov-28 22:34N 54°27' W 000°17'1514.6
2016-Nov-28 21:34N 54°15' W 000°03'1514.9
2016-Nov-28 20:33N 54°02' E 000°10'2913.0
2016-Nov-28 18:19N 53°33' E 000°16'911.7
2016-Nov-28 17:33N 53°35' E 000°01'8 7.7
2016-Nov-28 16:31N 53°38' W 000°11'0 0.0
2016-Nov-28 15:31N 53°38' W 000°11'0 0.0
2016-Nov-28 14:34N 53°38' W 000°11'0 0.0
2016-Nov-28 13:22N 53°38' W 000°11'0 0.0
2016-Nov-28 12:31N 53°38' W 000°11'0 0.0
2016-Nov-28 11:28N 53°38' W 000°11'0 0.0
2016-Nov-28 10:28N 53°38' W 000°11'0 0.0
2016-Nov-28 09:31N 53°38' W 000°11'0 0.0
2016-Nov-28 08:13N 53°38' W 000°11'0 0.0
2016-Nov-28 07:28N 53°38' W 000°11'0 0.0
2016-Nov-28 05:10N 53°38' W 000°11'0 0.0
2016-Nov-28 04:25N 53°38' W 000°11'0 0.0
2016-Nov-28 03:31N 53°38' W 000°11'0 0.0
2016-Nov-28 02:16N 53°38' W 000°11'0 0.0
2016-Nov-28 01:31N 53°38' W 000°11'0 0.0
2016-Nov-28 00:16N 53°38' W 000°11'0 0.0
2016-Nov-27 23:27N 53°38' W 000°11'0 0.0
2016-Nov-27 22:34N 53°38' W 000°11'0 0.0
2016-Nov-27 21:34N 53°38' W 000°11'0 0.0
2016-Nov-27 20:31N 53°38' W 000°11'2 2.4
2016-Nov-27 19:33N 53°37' W 000°08'1110.5
2016-Nov-27 18:33N 53°33' E 000°09'45 9.1
2016-Nov-27 13:34N 53°13' E 001°17'1514.6
2016-Nov-27 12:34N 53°00' E 001°29'1515.2
2016-Nov-27 11:34N 52°51' E 001°48'  

Dump ship's entire track history